Weather reports worldwide

Advertisment
Bielsa, Spain (8103): temperature & dewpoint: 18.06.2018 15:00:00 - 24.06.2018 15:00:00 (CEST)Bielsa, Spain (8103): wind speed & gusts: 18.06.2018 15:00:00 - 24.06.2018 15:00:00 (CEST)Bielsa, Spain (8103): wind direction: 18.06.2018 15:00:00 - 24.06.2018 15:00:00 (CEST)Bielsa, Spain (8103): visibility: 18.06.2018 15:00:00 - 24.06.2018 15:00:00 (CEST)Bielsa, Spain (8103): sunshine duration: 18.06.2018 15:00:00 - 24.06.2018 15:00:00 (CEST)Bielsa, Spain (8103): precipitation: 18.06.2018 15:00:00 - 24.06.2018 15:00:00 (CEST)
Date & Time tt [°C] td [°C] ff [km/h] ff [kn] fx [km/h] fx [kn] dd vv [km] sd [min] rr [mm]
24.06.2018 15:00:00 - - - - - - - - - -
24.06.2018 14:00:00 25,6 15,0 6 4 29 16 SE 18 60 -
24.06.2018 13:00:00 24,4 15,6 8 4 29 16 SE 16 60 0,0
24.06.2018 12:00:00 22,7 14,5 6 3 25 13 ESE 20 58 0,0
24.06.2018 11:00:00 22,4 15,3 8 4 29 16 SSE 20 60 0,0
24.06.2018 10:00:00 20,2 14,8 8 4 23 13 SE 16 60 0,0
24.06.2018 09:00:00 17,7 13,5 4 2 11 6 ESE 20 34 0,0
24.06.2018 08:00:00 14,6 13,2 2 1 6 3 NNW 14 0 -
24.06.2018 07:00:00 13,8 12,3 0 0 10 5 N 15 0 0,0
24.06.2018 06:00:00 14,2 12,4 2 1 10 5 NNW 17 0 0,0
24.06.2018 05:00:00 13,8 12,6 3 2 13 7 NW 19 0 0,0
24.06.2018 04:00:00 13,7 12,1 1 1 5 3 NNW 10 0 0,0
24.06.2018 03:00:00 14,4 12,6 1 1 8 4 NNW 16 0 0,0
24.06.2018 02:00:00 15,5 12,8 3 2 11 6 WNW 20 0 -
24.06.2018 01:00:00 15,7 13,1 3 1 14 7 W 20 0 0,0
24.06.2018 00:00:00 16,6 13,2 2 1 14 8 NNW 13 0 0,0
23.06.2018 23:00:00 18,2 13,3 1 1 8 4 N 20 0 0,0
23.06.2018 22:00:00 19,4 13,8 2 1 6 3 NW 20 0 0,0
23.06.2018 21:00:00 20,7 14,3 3 1 16 8 NNW 20 0 0,0
23.06.2018 20:00:00 23,1 12,7 6 3 23 13 NW 20 0 -
23.06.2018 19:00:00 24,6 14,0 5 3 25 14 N 20 46 0,0
23.06.2018 18:00:00 27,2 15,3 8 4 31 17 ESE 20 60 0,0
23.06.2018 17:00:00 27,3 15,3 9 5 28 15 SE 20 58 0,0
23.06.2018 16:00:00 27,2 14,9 8 4 31 17 ESE 20 60 0,0
23.06.2018 15:00:00 27,3 15,0 9 5 29 16 SE 20 60 0,0
23.06.2018 14:00:00 26,8 15,5 10 5 31 17 SSE 20 60 -
23.06.2018 13:00:00 25,2 14,6 9 5 30 16 SE 15 60 0,0
23.06.2018 12:00:00 24,5 14,9 7 4 27 15 ESE 13 60 0,0
23.06.2018 11:00:00 22,8 13,6 9 5 22 12 SSE 20 60 0,0
23.06.2018 10:00:00 19,5 13,0 4 2 9 5 ESE 20 60 0,0
23.06.2018 09:00:00 14,9 13,3 3 2 6 3 N 20 34 0,0
23.06.2018 08:00:00 11,8 10,5 1 1 9 5 WSW 18 0 -
23.06.2018 07:00:00 11,3 9,9 1 1 12 6 NNW 18 0 0,0
23.06.2018 06:00:00 11,4 9,7 2 1 13 7 NNW 15 0 0,0
23.06.2018 05:00:00 12,0 9,7 1 1 12 7 W 19 0 0,0
23.06.2018 04:00:00 12,6 10,2 1 1 17 9 WNW 19 0 0,0
23.06.2018 03:00:00 13,1 10,4 2 1 7 4 NNW 20 0 0,0
23.06.2018 02:00:00 14,6 10,2 2 1 15 8 W 20 0 -
23.06.2018 01:00:00 16,0 10,5 3 2 17 9 WNW 20 0 0,0
23.06.2018 00:00:00 17,2 10,5 5 3 23 13 N 20 0 0,0
22.06.2018 23:00:00 19,3 10,3 11 6 32 18 NW 20 0 0,0
22.06.2018 22:00:00 20,9 10,0 12 7 36 19 NW 20 0 0,0
22.06.2018 21:00:00 21,8 10,3 15 8 43 23 NW 20 0 0,0
22.06.2018 20:00:00 23,2 10,6 14 8 41 22 NW 20 0 -
22.06.2018 19:00:00 24,8 11,0 16 9 39 21 NW 20 49 0,0
22.06.2018 18:00:00 25,7 11,1 13 7 40 21 NW 20 38 0,0
22.06.2018 17:00:00 26,9 13,0 12 6 33 18 NW 20 29 0,0
22.06.2018 16:00:00 27,6 11,2 12 6 26 14 NNW 20 39 0,0
22.06.2018 15:00:00 28,7 13,4 6 3 22 12 SE 20 44 0,0
22.06.2018 14:00:00 29,2 12,2 8 5 25 13 SE 20 60 -
22.06.2018 13:00:00 27,9 10,2 3 2 21 11 NNW 19 60 0,0
22.06.2018 12:00:00 26,0 9,8 9 5 26 14 NNW 20 60 0,0
22.06.2018 11:00:00 24,5 10,8 12 7 21 12 NNW 20 60 0,0
22.06.2018 10:00:00 21,7 12,0 9 5 15 8 NNW 20 60 0,0
22.06.2018 09:00:00 16,8 13,6 1 1 13 7 NE 17 34 0,0
22.06.2018 08:00:00 13,4 11,1 2 1 11 6 NNW 20 0 -
22.06.2018 07:00:00 13,5 11,0 4 2 13 7 NW 20 0 0,0
22.06.2018 06:00:00 13,5 11,0 2 1 9 5 NW 19 0 0,0
22.06.2018 05:00:00 14,4 11,0 1 1 16 9 NW 20 0 0,0
22.06.2018 04:00:00 15,0 11,2 2 1 14 8 NW 17 0 0,0
22.06.2018 03:00:00 16,1 11,4 2 1 16 9 WNW 20 0 0,0
22.06.2018 02:00:00 17,8 11,3 4 2 18 10 NNW 20 0 -
22.06.2018 01:00:00 19,2 11,4 7 4 24 13 NNW 20 0 0,0
22.06.2018 00:00:00 20,0 11,0 8 5 25 14 NNW 20 0 0,0
21.06.2018 23:00:00 20,3 11,4 10 6 22 12 NNW 20 0 0,0
21.06.2018 22:00:00 20,9 11,2 9 5 22 12 NNW 20 0 0,0
21.06.2018 21:00:00 23,2 11,2 9 5 34 19 NW 20 0 0,0
21.06.2018 20:00:00 24,5 12,4 12 7 31 17 NW 20 0 -
21.06.2018 19:00:00 24,8 13,7 6 3 26 14 NW 20 0 0,0
21.06.2018 18:00:00 28,7 13,8 5 3 12 6 SSE 20 25 0,0
21.06.2018 17:00:00 25,1 17,3 4 2 13 7 NW 20 0 0,0
21.06.2018 16:00:00 27,5 12,7 5 3 20 11 SE 20 30 0,0
21.06.2018 15:00:00 28,0 13,9 5 3 20 11 SE 16 35 0,0
21.06.2018 14:00:00 29,8 11,3 3 2 20 11 ESE 20 53 -
21.06.2018 13:00:00 27,0 11,1 10 5 23 12 NNW 20 53 0,0
21.06.2018 12:00:00 26,6 10,8 9 5 21 12 NW 20 57 0,0
21.06.2018 11:00:00 23,6 14,9 5 3 12 7 NNW 20 49 0,0
21.06.2018 10:00:00 18,1 15,0 1 1 5 3 NW 15 35 0,0
21.06.2018 09:00:00 15,6 14,1 3 1 6 3 N 20 31 0,0
21.06.2018 08:00:00 12,3 11,3 1 1 8 4 W 16 0 -
21.06.2018 07:00:00 12,0 11,1 1 1 9 5 NNE 16 0 0,0
21.06.2018 06:00:00 12,2 11,1 3 2 16 9 WNW 19 0 0,0
21.06.2018 05:00:00 12,7 11,1 2 1 11 6 NW 17 0 0,0
21.06.2018 04:00:00 12,9 11,3 3 2 8 5 NNW 19 0 0,0
21.06.2018 03:00:00 13,4 11,7 1 1 7 4 N 18 0 0,0
21.06.2018 02:00:00 14,2 11,7 2 1 14 8 NW 20 0 -
21.06.2018 01:00:00 15,0 12,5 2 1 11 6 NW 20 0 0,0
21.06.2018 00:00:00 15,8 13,0 1 1 7 4 N 20 0 0,0
20.06.2018 23:00:00 17,9 14,2 2 1 5 3 NW 20 0 0,0
20.06.2018 22:00:00 18,6 14,2 2 1 6 3 N 20 0 0,0
20.06.2018 21:00:00 19,8 14,6 3 2 7 4 NW 20 0 0,0
20.06.2018 20:00:00 23,2 15,0 2 1 12 7 NNW 20 0 -
20.06.2018 19:00:00 25,7 12,5 4 2 13 7 ESE 20 12 0,0
20.06.2018 18:00:00 26,6 11,1 4 2 19 11 SE 20 9 0,0
20.06.2018 17:00:00 28,9 9,6 7 4 22 12 SSE 20 59 0,0
20.06.2018 16:00:00 27,9 10,2 7 4 27 14 SE 20 52 0,0
20.06.2018 15:00:00 28,3 13,1 9 5 30 16 SE 20 60 0,0
20.06.2018 14:00:00 27,7 13,7 9 5 32 17 SE 20 60 -
20.06.2018 13:00:00 26,1 13,3 11 6 31 17 E 20 60 0,0
20.06.2018 12:00:00 25,3 14,4 6 3 24 13 ESE 17 60 0,0
20.06.2018 11:00:00 23,4 13,6 8 5 21 12 SSE 20 60 0,0
20.06.2018 10:00:00 20,0 13,3 4 2 9 5 ESE 15 53 0,0
20.06.2018 09:00:00 14,4 13,1 2 1 6 3 N 20 21 0,0
20.06.2018 08:00:00 12,1 11,3 1 1 6 3 ENE 20 0 -
20.06.2018 07:00:00 11,8 10,9 1 1 6 3 WNW 20 0 0,0
20.06.2018 06:00:00 12,0 10,7 0 0 5 3 N 20 0 0,0
20.06.2018 05:00:00 12,6 11,5 1 1 4 2 NNW 20 0 0,0
20.06.2018 04:00:00 13,3 11,9 1 1 8 5 N 20 0 0,0
20.06.2018 03:00:00 14,3 12,2 2 1 10 5 W 20 0 0,0
20.06.2018 02:00:00 16,0 12,6 1 1 6 3 N 20 0 -
20.06.2018 01:00:00 17,6 13,5 0 0 6 3 N 20 0 0,0
20.06.2018 00:00:00 18,5 13,8 1 1 10 5 WNW 20 0 0,0
19.06.2018 23:00:00 19,0 13,8 3 1 10 5 NW 20 0 0,0
19.06.2018 22:00:00 19,8 13,7 3 1 22 12 N 20 0 0,0
19.06.2018 21:00:00 20,4 13,6 3 1 16 9 NNE 20 0 0,0
19.06.2018 20:00:00 23,9 12,5 7 4 24 13 ESE 20 0 -
19.06.2018 19:00:00 26,4 13,2 6 3 29 15 SE 20 57 0,0
19.06.2018 18:00:00 26,9 14,0 9 5 30 16 SSE 20 60 0,0
19.06.2018 17:00:00 27,0 14,1 8 5 36 20 SE 20 60 0,0
19.06.2018 16:00:00 27,3 13,6 8 4 30 16 SSE 20 60 0,0
19.06.2018 15:00:00 26,6 13,0 9 5 35 19 SE 18 60 0,0
19.06.2018 14:00:00 25,1 12,3 13 7 37 20 ESE 20 60 -
19.06.2018 13:00:00 24,7 11,6 8 4 35 19 ESE 20 60 0,0
19.06.2018 12:00:00 23,6 10,3 10 5 30 16 SSE 20 60 0,0
19.06.2018 11:00:00 21,7 9,6 5 3 19 10 ESE 14 60 0,0
19.06.2018 10:00:00 17,1 6,3 2 1 8 4 N 19 60 0,0
19.06.2018 09:00:00 11,6 7,7 3 1 7 4 N 20 35 0,0
19.06.2018 08:00:00 7,9 5,4 2 1 9 5 NNE 20 0 -
19.06.2018 07:00:00 7,9 5,4 1 1 14 7 N 20 0 0,0
19.06.2018 06:00:00 8,3 5,1 3 2 12 6 NNW 20 0 0,0
19.06.2018 05:00:00 9,1 5,3 3 2 17 9 NNW 20 0 0,0
19.06.2018 04:00:00 9,5 6,4 2 1 11 6 WNW 20 0 0,0
19.06.2018 03:00:00 10,6 6,6 3 2 16 9 WNW 20 0 0,0
19.06.2018 02:00:00 11,2 6,9 4 2 16 9 NW 20 0 -
19.06.2018 01:00:00 12,3 7,4 3 2 19 10 WNW 20 0 0,0
19.06.2018 00:00:00 13,6 7,8 4 2 24 13 N 20 0 0,0
18.06.2018 23:00:00 14,2 8,2 2 1 14 8 ENE 20 0 0,0
18.06.2018 22:00:00 17,5 8,1 2 1 37 20 N 20 0 0,0
18.06.2018 21:00:00 19,6 7,0 13 7 43 23 NW 20 0 0,0
18.06.2018 20:00:00 20,6 8,3 11 6 46 25 WNW 20 0 -
18.06.2018 19:00:00 22,3 7,7 16 9 52 28 NW 20 53 0,0
18.06.2018 18:00:00 24,7 5,5 16 9 39 21 NW 20 60 0,0
18.06.2018 17:00:00 25,3 4,4 18 10 41 22 NW 20 60 0,0
18.06.2018 16:00:00 25,3 5,0 16 9 38 21 NW 20 60 0,0
18.06.2018 15:00:00 24,9 5,2 16 9 36 20 NNW 20 60 0,0

tt = temperature
td = dewpoint
ff = wind speed
fx = gusts
dd = wind direction
vv = visibility
sd = sunshine duration
rr = precipitation

Next stations